^^
Grace C. Lehan Memorial Weather Station Historical Data
Daily Summary for January 19, 2022 Units:  Metric    English   Both
Daily Weekly Monthly Yearly
  High: Low: Average:
Temperature: 8.4 °C -7.2 °C 1.2 °C
Dew Point: 1.8 °C -11.3 °C -3.3 °C
Humidity: 81% 56.7% 72%
Wind Speed: 12.4km/h 0km/h 2.1km/h
Wind Gust: 37km/h - -
Wind- - SSW
Pressure: 1021.6 hPa 1011.7 hPa -
Precipitation: 0 mm    
 
 
Tabular Data for January 19, 2022
Time Temperature Dew Point Pressure Wind Wind Speed Wind Gust Humidity Rainfall Rate (Hourly) solar
00:04 -6.4 °C -11.2 °C 1020.9 hPa Calm     69% 0 mm 0 W/m2
00:09 -6.5 °C -11.2 °C 1021.2 hPa Calm     69% 0 mm 0 W/m2
00:14 -6.6 °C -11.1 °C 1021.6 hPa Calm     70% 0 mm 0 W/m2
00:19 -6.6 °C -11.2 °C 1021.6 hPa Calm     69.8% 0 mm 0 W/m2
00:24 -6.6 °C -11.3 °C 1021.6 hPa Calm     69% 0 mm 0 W/m2
00:29 -6.6 °C -11.3 °C 1021.2 hPa Calm     69.3% 0 mm 0 W/m2
00:34 -6.7 °C -11.1 °C 1021.2 hPa Calm     70.5% 0 mm 0 W/m2
00:39 -6.7 °C -11.1 °C 1021.2 hPa Calm     71% 0 mm 0 W/m2
00:44 -6.8 °C -11.1 °C 1020.9 hPa Calm     71.4% 0 mm 0 W/m2
00:49 -6.8 °C -11.1 °C 1020.9 hPa Calm     72% 0 mm 0 W/m2
00:54 -6.9 °C -11.1 °C 1020.9 hPa Calm     72.2% 0 mm 0 W/m2
00:59 -6.9 °C -11 °C 1020.9 hPa Calm     73% 0 mm 0 W/m2
01:04 -7 °C -11.1 °C 1020.9 hPa Calm     73% 0 mm 0 W/m2
01:09 -7.1 °C -11.1 °C 1020.5 hPa Calm     73.1% 0 mm 0 W/m2
01:14 -7.1 °C -10.9 °C 1020.5 hPa Calm     74% 0 mm 0 W/m2
01:19 -7.2 °C -10.9 °C 1020.5 hPa Calm     74.7% 0 mm 0 W/m2
01:24 -7.2 °C -10.8 °C 1020.5 hPa Calm     75% 0 mm 0 W/m2
01:29 -7.2 °C -10.7 °C 1020.5 hPa Calm     76% 0 mm 0 W/m2
01:34 -7.1 °C -10.5 °C 1020.5 hPa Calm     76.7% 0 mm 0 W/m2
01:39 -7.1 °C -10.4 °C 1020.5 hPa Calm     77% 0 mm 0 W/m2
01:44 -7.1 °C -10.4 °C 1020.5 hPa Calm     77% 0 mm 0 W/m2
01:49 -7.1 °C -10.4 °C 1020.5 hPa Calm     77% 0 mm 0 W/m2
01:54 -7.1 °C -10.4 °C 1020.9 hPa Calm     77% 0 mm 0 W/m2
01:59 -7.1 °C -10.4 °C 1020.9 hPa Calm     77% 0 mm 0 W/m2
02:04 -7.1 °C -10.3 °C 1021.2 hPa Calm     77.8% 0 mm 0 W/m2
02:09 -7.1 °C -10.3 °C 1021.2 hPa Calm     78% 0 mm 0 W/m2
02:14 -7.1 °C -10.2 °C 1021.6 hPa Calm     78.4% 0 mm 0 W/m2
02:19 -7.1 °C -10.2 °C 1021.6 hPa Calm     79% 0 mm 0 W/m2
02:24 -7.1 °C -10.2 °C 1021.6 hPa Calm     79% 0 mm 0 W/m2
02:29 -7.2 °C -10.2 °C 1021.6 hPa Calm     79% 0 mm 0 W/m2
02:34 -7.2 °C -10.2 °C 1021.2 hPa Calm     78.8% 0 mm 0 W/m2
02:39 -7.1 °C -10.3 °C 1021.6 hPa Calm     78% 0 mm 0 W/m2
02:44 -7.1 °C -10.3 °C 1021.6 hPa Calm     78% 0 mm 0 W/m2
02:49 -7.1 °C -10.3 °C 1021.6 hPa Calm     78% 0 mm 0 W/m2
02:54 -7.1 °C -10.3 °C 1021.2 hPa Calm     78% 0 mm 0 W/m2
02:58 -7.1 °C -10.2 °C 1021.6 hPa Calm     78% 0 mm 0 W/m2
03:04 -7 °C -10.2 °C 1021.6 hPa Calm     78% 0 mm 0 W/m2
03:09 -6.9 °C -10.1 °C 1021.2 hPa Calm     78% 0 mm 0 W/m2
03:14 -6.9 °C -10.1 °C 1021.2 hPa Calm     77.7% 0 mm 0 W/m2
03:19 -6.8 °C -10.2 °C 1021.2 hPa Calm     77% 0 mm 0 W/m2
03:24 -6.8 °C -10.2 °C 1021.6 hPa Calm     77% 0 mm 0 W/m2
03:29 -6.8 °C -10.2 °C 1021.6 hPa Calm     77.2% 0 mm 0 W/m2
03:34 -6.9 °C -10.1 °C 1021.2 hPa Calm     78% 0 mm 0 W/m2
03:39 -6.9 °C -10.1 °C 1021.2 hPa Calm     78.2% 0 mm 0 W/m2
03:44 -6.9 °C -9.9 °C 1020.9 hPa Calm     79% 0 mm 0 W/m2
03:49 -6.9 °C -9.9 °C 1020.9 hPa Calm     79% 0 mm 0 W/m2
03:54 -7 °C -9.8 °C 1021.2 hPa Calm     80% 0 mm 0 W/m2
03:59 -7 °C -9.8 °C 1020.9 hPa Calm     80% 0 mm 0 W/m2
04:00 -7 °C -9.8 °C 1020.9 hPa Calm     80% 0 mm 0 W/m2
04:09 -7 °C -9.8 °C 1020.9 hPa Calm     80% 0 mm 0 W/m2
04:14 -6.9 °C -9.8 °C 1020.5 hPa Calm     80% 0 mm 0 W/m2
04:19 -6.9 °C -9.6 °C 1020.5 hPa Calm     80.9% 0 mm 0 W/m2
04:24 -6.8 °C -9.6 °C 1020.9 hPa Calm     81% 0 mm 0 W/m2
04:29 -6.8 °C -9.5 °C 1020.9 hPa Calm     81% 0 mm 0 W/m2
04:34 -6.7 °C -9.4 °C 1020.5 hPa Calm     81% 0 mm 0 W/m2
04:39 -6.6 °C -9.3 °C 1020.5 hPa Calm     81% 0 mm 0 W/m2
04:44 -6.6 °C -9.3 °C 1020.2 hPa Calm     81% 0 mm 0 W/m2
04:49 -6.5 °C -9.2 °C 1020.2 hPa Calm     81% 0 mm 0 W/m2
04:54 -6.4 °C -9.2 °C 1020.2 hPa Calm     81% 0 mm 0 W/m2
04:59 -6.4 °C -9.1 °C 1020.2 hPa Calm     81% 0 mm 0 W/m2
05:04 -6.3 °C -9.1 °C 1020.2 hPa Calm     80.5% 0 mm 0 W/m2
05:09 -6.3 °C -9.2 °C 1020.2 hPa Calm     80% 0 mm 0 W/m2
05:14 -6.3 °C -9.2 °C 1019.9 hPa Calm     80% 0 mm 0 W/m2
05:19 -6.3 °C -9.2 °C 1019.9 hPa Calm     80% 0 mm 0 W/m2
05:24 -6.2 °C -9.2 °C 1019.9 hPa Calm     79.5% 0 mm 0 W/m2
05:29 -6.2 °C -9.2 °C 1019.5 hPa Calm     79% 0 mm 0 W/m2
05:34 -6.1 °C -9.3 °C 1019.5 hPa Calm     78.4% 0 mm 0 W/m2
05:39 -6.1 °C -9.2 °C 1019.9 hPa Calm     78.2% 0 mm 0 W/m2
05:44 -6 °C -9.2 °C 1019.9 hPa Calm     78% 0 mm 0 W/m2
05:49 -5.9 °C -9.2 °C 1019.9 hPa Calm     78% 0 mm 0 W/m2
05:54 -5.9 °C -9.1 °C 1019.9 hPa Calm     78% 0 mm 0 W/m2
05:59 -5.8 °C -9.1 °C 1019.9 hPa Calm     78% 0 mm 0 W/m2
06:04 -5.8 °C -9 °C 1019.9 hPa Calm     78% 0 mm 0 W/m2
06:09 -5.7 °C -9.1 °C 1019.9 hPa Calm     77.2% 0 mm 0 W/m2
06:14 -5.7 °C -9.2 °C 1019.9 hPa Calm     76.3% 0 mm 0 W/m2
06:19 -5.6 °C -9.2 °C 1019.9 hPa Calm     76% 0 mm 0 W/m2
06:24 -5.6 °C -9.1 °C 1019.9 hPa Calm     76% 0 mm 0 W/m2
06:29 -5.5 °C -9.1 °C 1019.9 hPa Calm     76% 0 mm 0 W/m2
06:34 -5.4 °C -9 °C 1019.9 hPa Calm     76% 0 mm 0 W/m2
06:39 -5.4 °C -8.9 °C 1019.9 hPa Calm     76% 0 mm 0 W/m2
06:44 -5.3 °C -8.9 °C 1019.9 hPa Calm     76% 0 mm 0 W/m2
06:49 -5.3 °C -8.8 °C 1019.9 hPa Calm     76% 0 mm 0 W/m2
06:54 -5.2 °C -8.8 °C 1019.9 hPa Calm     76% 0 mm 0 W/m2
06:59 -5.1 °C -8.7 °C 1019.5 hPa Calm     76% 0 mm 0 W/m2
07:04 -4.9 °C -8.6 °C 1019.5 hPa Calm     75.7% 0 mm 0 W/m2
07:09 -4.8 °C -8.6 °C 1019.5 hPa Calm     75% 0 mm 5 W/m2
07:14 -4.7 °C -8.5 °C 1019.5 hPa Calm     75% 0 mm 9 W/m2
07:19 -4.7 °C -8.4 °C 1019.5 hPa Calm     75% 0 mm 16 W/m2
07:24 -4.7 °C -8.3 °C 1019.2 hPa Calm     75.3% 0 mm 23 W/m2
07:29 -4.6 °C -8.2 °C 1019.5 hPa Calm   1.6 km/h 76% 0 mm 28 W/m2
07:34 -4.4 °C -8.1 °C 1019.2 hPa West 0.8 km/h 3.2 km/h 76% 0 mm 28 W/m2
07:39 -4.3 °C -7.9 °C 1019.5 hPa West 0.3 km/h 3.2 km/h 76% 0 mm 32 W/m2
07:44 -4.2 °C -7.7 °C 1019.5 hPa Calm   3.2 km/h 76.6% 0 mm 35 W/m2
07:49 -4.1 °C -7.5 °C 1019.2 hPa Calm   3.2 km/h 77% 0 mm 47 W/m2
07:54 -3.9 °C -7.4 °C 1019.5 hPa West 0.2 km/h 3.2 km/h 77% 0 mm 58 W/m2
07:59 -3.7 °C -7 °C 1019.5 hPa West 0.8 km/h 3.2 km/h 77.9% 0 mm 58 W/m2
08:09 -3.3 °C -6.7 °C 1019.2 hPa West 0.3 km/h 1.6 km/h 77% 0 mm 58 W/m2
08:14 -3.2 °C -6.6 °C 1019.2 hPa Calm   1.6 km/h 77% 0 mm 47 W/m2
08:19 -3.1 °C -6.5 °C 1019.2 hPa Calm   1.6 km/h 76.9% 0 mm 60 W/m2
08:24 -2.9 °C -6.6 °C 1019.2 hPa Calm   1.6 km/h 76.1% 0 mm 76 W/m2
08:29 -2.8 °C -6.3 °C 1019.2 hPa Calm   1.6 km/h 77% 0 mm 77 W/m2
08:34 -2.7 °C -6.2 °C 1019.2 hPa Calm   1.6 km/h 77.1% 0 mm 84 W/m2
08:39 -2.6 °C -6.1 °C 1018.8 hPa West 0.2 km/h 3.2 km/h 77.1% 0 mm 86 W/m2
08:44 -2.4 °C -5.8 °C 1018.8 hPa West 0.3 km/h 3.2 km/h 77.9% 0 mm 91 W/m2
08:49 -2.3 °C -5.6 °C 1018.8 hPa West 0.6 km/h 3.2 km/h 78% 0 mm 107 W/m2
08:54 -2.1 °C -5.4 °C 1018.5 hPa West 0.6 km/h 3.2 km/h 78% 0 mm 130 W/m2
08:59 -1.9 °C -5.3 °C 1018.8 hPa Calm   3.2 km/h 77.9% 0 mm 130 W/m2
09:04 -1.8 °C -5.3 °C 1018.5 hPa Calm   3.2 km/h 77% 0 mm 102 W/m2
09:09 -1.6 °C -5.1 °C 1018.5 hPa West 0.2 km/h 1.6 km/h 77.2% 0 mm 107 W/m2
09:14 -1.5 °C -5 °C 1018.5 hPa West 0.5 km/h 3.2 km/h 77% 0 mm 109 W/m2
09:19 -1.4 °C -4.9 °C 1018.5 hPa West 1.6 km/h 6.4 km/h 77% 0 mm 98 W/m2
09:24 -1.3 °C -4.8 °C 1018.5 hPa West 0.3 km/h 6.4 km/h 77% 0 mm 95 W/m2
09:29 -1.2 °C -4.6 °C 1018.5 hPa West 1.3 km/h 6.4 km/h 77.5% 0 mm 88 W/m2
09:34 -1.1 °C -4.4 °C 1018.5 hPa West 0.5 km/h 6.4 km/h 78% 0 mm 93 W/m2
09:39 -0.9 °C -4.2 °C 1018.2 hPa West 0.2 km/h 3.2 km/h 78.2% 0 mm 102 W/m2
09:44 -0.8 °C -3.9 °C 1018.2 hPa West 0.3 km/h 3.2 km/h 79% 0 mm 109 W/m2
09:49 -0.6 °C -3.7 °C 1018.2 hPa West 0.2 km/h 3.2 km/h 79% 0 mm 116 W/m2
09:54 -0.3 °C -3.4 °C 1018.2 hPa West 0.5 km/h 3.2 km/h 79% 0 mm 120 W/m2
09:59 0.1 °C -3.2 °C 1018.2 hPa West 0.5 km/h 3.2 km/h 79% 0 mm 123 W/m2
10:04 0.3 °C -2.9 °C 1017.8 hPa WSW 1.9 km/h 6.4 km/h 78.8% 0 mm 130 W/m2
10:09 0.7 °C -2.7 °C 1017.8 hPa WSW 1.8 km/h 8 km/h 78% 0 mm 148 W/m2
10:14 1 °C -2.4 °C 1017.8 hPa SW 3.4 km/h 11.3 km/h 78% 0 mm 156 W/m2
10:19 1.3 °C -2.1 °C 1017.5 hPa SSW 1.6 km/h 11.3 km/h 78% 0 mm 167 W/m2
10:24 1.7 °C -1.8 °C 1017.5 hPa SSW 1.9 km/h 11.3 km/h 77.3% 0 mm 169 W/m2
10:29 2.1 °C -1.5 °C 1017.2 hPa SSW 1.9 km/h 11.3 km/h 77% 0 mm 255 W/m2
10:34 2.6 °C -1.2 °C 1017.2 hPa SSW 1.4 km/h 11.3 km/h 76.2% 0 mm 353 W/m2
10:39 3.1 °C -0.8 °C 1017.2 hPa SW 5.5 km/h 19.3 km/h 75.4% 0 mm 462 W/m2
10:44 3.8 °C -0.5 °C 1017.2 hPa SW 6.8 km/h 22.5 km/h 73.2% 0 mm 462 W/m2
10:49 4.6 °C -0.3 °C 1016.8 hPa SW 7.1 km/h 22.5 km/h 70.6% 0 mm 508 W/m2
10:54 5 °C -0.3 °C 1016.8 hPa SSW 8.4 km/h 22.5 km/h 68.4% 0 mm 499 W/m2
10:59 5.2 °C -0.4 °C 1016.5 hPa SW 7.4 km/h 25.7 km/h 67% 0 mm 499 W/m2
11:04 5.4 °C -0.3 °C 1016.5 hPa SW 7.4 km/h 25.7 km/h 66.3% 0 mm 417 W/m2
11:09 5.6 °C -0.4 °C 1016.1 hPa SSW 6.8 km/h 20.9 km/h 65.4% 0 mm 316 W/m2
11:14 5.8 °C -0.4 °C 1016.1 hPa SSW 7.7 km/h 20.9 km/h 64.5% 0 mm 387 W/m2
11:19 5.8 °C -0.4 °C 1016.1 hPa SSW 6.6 km/h 20.9 km/h 63.9% 0 mm 466 W/m2
11:24 5.9 °C -0.6 °C 1015.8 hPa SSW 9 km/h 20.9 km/h 63% 0 mm 366 W/m2
11:29 5.9 °C -0.6 °C 1015.8 hPa SSW 8.7 km/h 22.5 km/h 63% 0 mm 246 W/m2
11:34 5.9 °C -0.5 °C 1015.5 hPa SSW 7.6 km/h 22.5 km/h 63.2% 0 mm 297 W/m2
11:39 6.1 °C -0.4 °C 1015.5 hPa SSW 9.2 km/h 20.9 km/h 63% 0 mm 406 W/m2
11:44 6.1 °C -0.4 °C 1015.5 hPa SSW 6.1 km/h 20.9 km/h 63% 0 mm 390 W/m2
11:49 6.2 °C -0.3 °C 1015.1 hPa SSW 8 km/h 20.9 km/h 62.9% 0 mm 223 W/m2
11:54 6.3 °C -0.2 °C 1015.1 hPa SSW 6.6 km/h 20.9 km/h 63% 0 mm 376 W/m2
11:59 6.4 °C -0.1 °C 1015.1 hPa SW 4.7 km/h 20.9 km/h 63% 0 mm 376 W/m2
12:00 6.5 °C 0 °C 1015.1 hPa SSW 8 km/h 20.9 km/h 63% 0 mm 246 W/m2
12:09 6.7 °C 0 °C 1014.8 hPa SW 9.5 km/h 24.1 km/h 62% 0 mm 385 W/m2
12:14 6.9 °C -0.1 °C 1014.4 hPa SW 8.5 km/h 29 km/h 61.2% 0 mm 223 W/m2
12:19 6.8 °C -0.3 °C 1014.4 hPa SSW 9.7 km/h 29 km/h 60.4% 0 mm 193 W/m2
12:24 6.7 °C -0.3 °C 1014.1 hPa South 6.8 km/h 29 km/h 60.8% 0 mm 220 W/m2
12:29 6.7 °C -0.3 °C 1013.8 hPa SW 8.2 km/h 29 km/h 61% 0 mm 246 W/m2
12:34 6.8 °C -0.2 °C 1013.8 hPa SW 4.7 km/h 29 km/h 61% 0 mm 279 W/m2
12:39 6.9 °C -0.3 °C 1013.8 hPa SW 10.5 km/h 27.4 km/h 60% 0 mm 211 W/m2
12:44 7 °C -0.3 °C 1013.8 hPa SW 10.3 km/h 27.4 km/h 59.5% 0 mm 260 W/m2
12:49 7.1 °C -0.2 °C 1013.4 hPa SW 10 km/h 27.4 km/h 59.8% 0 mm 313 W/m2
12:54 7.3 °C 0 °C 1013.4 hPa SSW 12.1 km/h 29 km/h 59.7% 0 mm 327 W/m2
12:59 7.4 °C -0.1 °C 1013.1 hPa SSW 9 km/h 30.6 km/h 58.9% 0 mm 246 W/m2
13:04 7.5 °C 0.4 °C 1013.4 hPa SW 9.3 km/h 30.6 km/h 60.7% 0 mm 229 W/m2
13:09 7.5 °C 0.2 °C 1013.4 hPa SW 8.5 km/h 22.5 km/h 59.8% 0 mm 229 W/m2
13:14 7.6 °C 0.2 °C 1013.4 hPa SW 6.9 km/h 37 km/h 59.9% 0 mm 248 W/m2
13:19 7.6 °C 0.2 °C 1013.1 hPa SSW 12.4 km/h 37 km/h 59.5% 0 mm 243 W/m2
13:24 7.6 °C 0.2 °C 1013.1 hPa SW 6.8 km/h 37 km/h 59.7% 0 mm 209 W/m2
13:29 7.6 °C 0.3 °C 1012.8 hPa SSW 8.9 km/h 37 km/h 60.1% 0 mm 207 W/m2
13:34 7.5 °C 0.3 °C 1012.8 hPa SSW 9.3 km/h 37 km/h 60.2% 0 mm 193 W/m2
13:39 7.5 °C 0.2 °C 1012.8 hPa SW 10.8 km/h 27.4 km/h 60% 0 mm 214 W/m2
13:44 7.4 °C 0.2 °C 1012.8 hPa SW 9 km/h 27.4 km/h 60.3% 0 mm 223 W/m2
13:49 7.5 °C 0.6 °C 1012.8 hPa SW 4.8 km/h 27.4 km/h 61.4% 0 mm 250 W/m2
13:54 7.7 °C 0.8 °C 1012.4 hPa SW 5 km/h 27.4 km/h 61.6% 0 mm 306 W/m2
13:59 7.9 °C 0.7 °C 1012.4 hPa SW 6.9 km/h 27.4 km/h 60.5% 0 mm 221 W/m2
14:04 7.9 °C 0.7 °C 1012.4 hPa SW 5.6 km/h 27.4 km/h 60% 0 mm 195 W/m2
14:09 8 °C 0.7 °C 1012.4 hPa SW 2.9 km/h 16.1 km/h 60% 0 mm 230 W/m2
14:14 8.1 °C 0.7 °C 1012.1 hPa SSW 5.6 km/h 17.7 km/h 59.4% 0 mm 373 W/m2
14:19 8.2 °C 0.6 °C 1012.1 hPa SW 8.7 km/h 33.8 km/h 58.4% 0 mm 258 W/m2
14:24 8.2 °C 0.4 °C 1012.1 hPa SSW 6.3 km/h 33.8 km/h 58% 0 mm 230 W/m2
14:29 8.3 °C 0.5 °C 1012.1 hPa SW 7.4 km/h 33.8 km/h 57.8% 0 mm 227 W/m2
14:34 8.4 °C 0.6 °C 1012.1 hPa SW 5.3 km/h 33.8 km/h 57.5% 0 mm 135 W/m2
14:39 8.4 °C 0.6 °C 1012.1 hPa SSW 4 km/h 11.3 km/h 57.7% 0 mm 95 W/m2
14:44 8.3 °C 0.5 °C 1012.1 hPa SW 5.5 km/h 17.7 km/h 57.8% 0 mm 95 W/m2
14:49 8.2 °C 0.4 °C 1012.1 hPa SSW 6.3 km/h 17.7 km/h 57.9% 0 mm 104 W/m2
14:54 8.1 °C 0.3 °C 1012.1 hPa SSW 3.7 km/h 17.7 km/h 58.1% 0 mm 97 W/m2
14:59 8.1 °C 0.3 °C 1012.1 hPa SSW 4.5 km/h 17.7 km/h 58.1% 0 mm 63 W/m2
15:04 8.1 °C 0.1 °C 1012.1 hPa SSW 4.7 km/h 17.7 km/h 57.2% 0 mm 84 W/m2
15:09 7.9 °C 0 °C 1011.7 hPa SSW 4.7 km/h 17.7 km/h 57% 0 mm 98 W/m2
15:14 7.9 °C -0.1 °C 1011.7 hPa SSW 7.1 km/h 25.7 km/h 57% 0 mm 84 W/m2
15:19 7.8 °C -0.2 °C 1011.7 hPa SSW 6.4 km/h 25.7 km/h 56.7% 0 mm 91 W/m2
15:24 7.8 °C -0.1 °C 1011.7 hPa SSW 3.7 km/h 25.7 km/h 57.3% 0 mm 91 W/m2
15:29 7.9 °C 0 °C 1012.1 hPa SSW 6.1 km/h 25.7 km/h 57.3% 0 mm 84 W/m2
15:34 7.9 °C -0.1 °C 1012.1 hPa SW 6 km/h 25.7 km/h 57% 0 mm 44 W/m2
15:39 7.9 °C 0.1 °C 1012.1 hPa SW 4 km/h 20.9 km/h 57.7% 0 mm 42 W/m2
15:44 7.8 °C 0.1 °C 1012.1 hPa SSW 3.1 km/h 20.9 km/h 58% 0 mm 30 W/m2
15:49 7.7 °C -0.1 °C 1012.1 hPa SW 3.9 km/h 20.9 km/h 58.1% 0 mm 23 W/m2
15:54 7.5 °C 0 °C 1012.1 hPa SW 1.9 km/h 20.9 km/h 59% 0 mm 23 W/m2
15:59 7.4 °C 0 °C 1012.1 hPa SW 2.6 km/h 20.9 km/h 59.4% 0 mm 25 W/m2
16:09 7.2 °C 0.1 °C 1012.1 hPa SW 2.7 km/h 9.7 km/h 60.5% 0 mm 30 W/m2
16:14 7.2 °C 0.2 °C 1012.1 hPa SW 1.6 km/h 9.7 km/h 61% 0 mm 26 W/m2
16:19 7.2 °C 0.2 °C 1011.7 hPa SSW 0.8 km/h 9.7 km/h 61% 0 mm 23 W/m2
16:24 7.2 °C 0.3 °C 1011.7 hPa SSW 0.3 km/h 9.7 km/h 61.6% 0 mm 21 W/m2
16:29 7.2 °C 0.5 °C 1011.7 hPa SSW 1.6 km/h 9.7 km/h 62.4% 0 mm 21 W/m2
16:34 7.2 °C 0.7 °C 1011.7 hPa SSW 1 km/h 9.7 km/h 63.6% 0 mm 14 W/m2
16:39 7.1 °C 0.8 °C 1011.7 hPa SSW 2.1 km/h 6.4 km/h 64.4% 0 mm 9 W/m2
16:44 7 °C 0.8 °C 1011.7 hPa SSW 1.1 km/h 6.4 km/h 65% 0 mm 9 W/m2
16:49 6.9 °C 0.9 °C 1011.7 hPa SSW 0.8 km/h 6.4 km/h 65.9% 0 mm 5 W/m2
16:54 6.8 °C 0.9 °C 1011.7 hPa SSW 0.8 km/h 6.4 km/h 66% 0 mm 0 W/m2
16:59 6.7 °C 0.9 °C 1011.7 hPa SSW 1.1 km/h 6.4 km/h 66.8% 0 mm 0 W/m2
17:04 6.6 °C 0.9 °C 1011.7 hPa SSW 1.1 km/h 6.4 km/h 67.1% 0 mm 0 W/m2
17:09 6.4 °C 0.9 °C 1011.7 hPa SSW 1.6 km/h 6.4 km/h 67.8% 0 mm 0 W/m2
17:14 6.4 °C 0.9 °C 1012.1 hPa SSW 1.9 km/h 6.4 km/h 68% 0 mm 0 W/m2
17:19 6.4 °C 1.1 °C 1012.1 hPa SSW 1.3 km/h 6.4 km/h 69% 0 mm 0 W/m2
17:24 6.3 °C 1.1 °C 1012.1 hPa SSW 1.9 km/h 6.4 km/h 69% 0 mm 0 W/m2
17:29 6.3 °C 1.2 °C 1012.1 hPa SSW 1.9 km/h 6.4 km/h 70% 0 mm 0 W/m2
17:34 6.2 °C 1.2 °C 1012.1 hPa SSW 2.6 km/h 9.7 km/h 70.1% 0 mm 0 W/m2
17:39 6.2 °C 1.4 °C 1012.1 hPa South 3.5 km/h 9.7 km/h 71% 0 mm 0 W/m2
17:44 6.2 °C 1.3 °C 1012.1 hPa South 2.3 km/h 9.7 km/h 71% 0 mm 0 W/m2
17:49 6.2 °C 1.4 °C 1012.1 hPa South 2.3 km/h 9.7 km/h 71.5% 0 mm 0 W/m2
17:54 6.2 °C 1.5 °C 1012.1 hPa South 2.4 km/h 9.7 km/h 72% 0 mm 0 W/m2
17:59 6.1 °C 1.4 °C 1012.1 hPa South 2.4 km/h 9.7 km/h 72.2% 0 mm 0 W/m2
18:04 6.1 °C 1.6 °C 1012.1 hPa South 3.1 km/h 9.7 km/h 73% 0 mm 0 W/m2
18:09 6.1 °C 1.6 °C 1012.1 hPa South 2.6 km/h 6.4 km/h 73% 0 mm 0 W/m2
18:14 6 °C 1.6 °C 1012.1 hPa South 3.1 km/h 8 km/h 73% 0 mm 0 W/m2
18:19 5.9 °C 1.6 °C 1012.1 hPa South 2.9 km/h 8 km/h 73.6% 0 mm 0 W/m2
18:24 5.9 °C 1.7 °C 1012.1 hPa South 1.9 km/h 8 km/h 74% 0 mm 0 W/m2
18:29 5.9 °C 1.7 °C 1012.4 hPa South 2.7 km/h 8 km/h 74% 0 mm 0 W/m2
18:34 5.9 °C 1.7 °C 1012.4 hPa South 3.2 km/h 8 km/h 74% 0 mm 0 W/m2
18:39 5.9 °C 1.7 °C 1012.4 hPa South 1.3 km/h 6.4 km/h 74% 0 mm 0 W/m2
18:44 5.9 °C 1.7 °C 1012.4 hPa South 1.3 km/h 6.4 km/h 74.4% 0 mm 0 W/m2
18:49 5.9 °C 1.8 °C 1012.8 hPa South 0.5 km/h 6.4 km/h 75% 0 mm 0 W/m2
18:54 5.8 °C 1.8 °C 1012.8 hPa South 0.2 km/h 6.4 km/h 75% 0 mm 0 W/m2
18:59 5.8 °C 1.7 °C 1012.8 hPa South 0.5 km/h 6.4 km/h 75% 0 mm 0 W/m2
19:04 5.8 °C 1.7 °C 1012.8 hPa South 0.8 km/h 6.4 km/h 75% 0 mm 0 W/m2
19:09 5.7 °C 1.8 °C 1012.8 hPa South 1 km/h 4.8 km/h 75.9% 0 mm 0 W/m2
19:14 5.7 °C 1.7 °C 1012.8 hPa South 1 km/h 4.8 km/h 75% 0 mm 0 W/m2
19:19 5.7 °C 1.6 °C 1013.1 hPa South 0.3 km/h 4.8 km/h 75% 0 mm 0 W/m2
19:24 5.7 °C 1.6 °C 1013.1 hPa South 1.4 km/h 8 km/h 75.2% 0 mm 0 W/m2
19:29 5.7 °C 1.7 °C 1013.1 hPa South 0.5 km/h 8 km/h 75.5% 0 mm 0 W/m2
19:34 5.6 °C 1.7 °C 1013.1 hPa Calm   8 km/h 76% 0 mm 0 W/m2
19:39 5.6 °C 1.7 °C 1013.1 hPa South 0.2 km/h 1.6 km/h 76% 0 mm 0 W/m2
19:44 5.4 °C 1.6 °C 1013.1 hPa South 0.2 km/h 1.6 km/h 76% 0 mm 0 W/m2
19:49 5.3 °C 1.7 °C 1013.1 hPa Calm   1.6 km/h 77% 0 mm 0 W/m2
19:54 5.3 °C 1.6 °C 1013.1 hPa Calm   1.6 km/h 77% 0 mm 0 W/m2
19:59 5.3 °C 1.6 °C 1013.1 hPa South 0.5 km/h 4.8 km/h 77% 0 mm 0 W/m2
20:09 5.2 °C 1.5 °C 1012.8 hPa Calm     77% 0 mm 0 W/m2
20:14 5.1 °C 1.6 °C 1012.8 hPa South 0.5 km/h 3.2 km/h 77.8% 0 mm 0 W/m2
20:19 5.1 °C 1.4 °C 1012.8 hPa South 1 km/h 4.8 km/h 77% 0 mm 0 W/m2
20:24 5 °C 1.3 °C 1013.1 hPa South 1.6 km/h 4.8 km/h 77% 0 mm 0 W/m2
20:29 5 °C 1.3 °C 1013.1 hPa South 2.3 km/h 4.8 km/h 77% 0 mm 0 W/m2
20:34 4.9 °C 1.3 °C 1012.8 hPa South 2.6 km/h 6.4 km/h 77% 0 mm 0 W/m2
20:39 4.9 °C 1.4 °C 1012.8 hPa SSW 3.4 km/h 6.4 km/h 77.7% 0 mm 0 W/m2
20:44 4.9 °C 1.4 °C 1013.1 hPa SSW 2.9 km/h 6.4 km/h 78% 0 mm 0 W/m2
20:49 4.9 °C 1.4 °C 1013.1 hPa SSW 3.7 km/h 6.4 km/h 78% 0 mm 0 W/m2
20:54 4.9 °C 1.4 °C 1013.1 hPa SSW 3.2 km/h 6.4 km/h 78% 0 mm 0 W/m2
20:59 4.9 °C 1.4 °C 1013.1 hPa SSW 2.9 km/h 8 km/h 78% 0 mm 0 W/m2
21:04 4.9 °C 1.4 °C 1012.8 hPa SSW 1.3 km/h 8 km/h 78% 0 mm 0 W/m2
21:09 4.9 °C 1.3 °C 1013.1 hPa SSW 2.1 km/h 6.4 km/h 77.1% 0 mm 0 W/m2
21:14 4.9 °C 1.3 °C 1013.1 hPa SSW 2.6 km/h 6.4 km/h 77% 0 mm 0 W/m2
21:19 4.9 °C 1.3 °C 1013.1 hPa SSW 2.3 km/h 6.4 km/h 77% 0 mm 0 W/m2
21:24 5 °C 1.3 °C 1013.1 hPa SSW 2.3 km/h 6.4 km/h 77% 0 mm 0 W/m2
21:29 5 °C 1.6 °C 1013.1 hPa SSW 1.3 km/h 6.4 km/h 78.3% 0 mm 0 W/m2
21:34 5 °C 1.3 °C 1013.1 hPa SSW 1.1 km/h 6.4 km/h 77% 0 mm 0 W/m2
21:39 5 °C 1.3 °C 1013.1 hPa SSW 1.9 km/h 6.4 km/h 77% 0 mm 0 W/m2
21:44 5 °C 1.3 °C 1013.1 hPa SSW 1.1 km/h 6.4 km/h 77% 0 mm 0 W/m2
21:49 4.9 °C 1.3 °C 1013.1 hPa SSW 1.8 km/h 6.4 km/h 77% 0 mm 0 W/m2
21:54 4.9 °C 1.3 °C 1013.1 hPa SSW 0.2 km/h 6.4 km/h 77% 0 mm 0 W/m2
21:59 4.9 °C 1.2 °C 1013.1 hPa Calm   6.4 km/h 77% 0 mm 0 W/m2
22:04 4.9 °C 1.2 °C 1013.1 hPa SSW 0.6 km/h 6.4 km/h 77% 0 mm 0 W/m2
22:09 4.9 °C 1.3 °C 1013.1 hPa SSW 0.2 km/h 3.2 km/h 77% 0 mm 0 W/m2
22:14 5 °C 1.6 °C 1013.1 hPa Calm   3.2 km/h 78.6% 0 mm 0 W/m2
22:19 5.1 °C 1.3 °C 1013.1 hPa Calm   4.8 km/h 77% 0 mm 0 W/m2
22:24 5 °C 1.3 °C 1013.1 hPa Calm   4.8 km/h 77% 0 mm 0 W/m2
22:29 5 °C 1.3 °C 1013.1 hPa Calm   4.8 km/h 77% 0 mm 0 W/m2
22:34 5.1 °C 1.3 °C 1013.1 hPa Calm   4.8 km/h 77% 0 mm 0 W/m2
22:39 5.1 °C 1.4 °C 1012.8 hPa Calm     77% 0 mm 0 W/m2
22:44 5.1 °C 1.3 °C 1012.8 hPa Calm     77% 0 mm 0 W/m2
22:49 5 °C 1.5 °C 1012.8 hPa Calm     77.9% 0 mm 0 W/m2
22:54 5.1 °C 1.6 °C 1013.1 hPa Calm     78% 0 mm 0 W/m2
22:59 5.1 °C 1.6 °C 1012.8 hPa Calm     78% 0 mm 0 W/m2
23:00 5 °C 1.5 °C 1012.8 hPa Calm     78% 0 mm 0 W/m2
23:09 5 °C 1.5 °C 1012.8 hPa Calm     78% 0 mm 0 W/m2
23:14 5.1 °C 1.5 °C 1013.1 hPa Calm     78% 0 mm 0 W/m2
23:19 5 °C 1.5 °C 1013.1 hPa Calm     78% 0 mm 0 W/m2
23:24 5 °C 1.4 °C 1013.1 hPa Calm     78% 0 mm 0 W/m2
23:29 4.9 °C 1.4 °C 1013.1 hPa Calm     78% 0 mm 0 W/m2
23:34 4.9 °C 1.4 °C 1013.1 hPa Calm     78% 0 mm 0 W/m2
23:39 4.8 °C 1.4 °C 1013.1 hPa SSW 0.2 km/h 1.6 km/h 78.3% 0 mm 0 W/m2
23:44 4.9 °C 1.5 °C 1013.1 hPa Calm   1.6 km/h 78.7% 0 mm 0 W/m2
23:49 4.9 °C 1.4 °C 1012.8 hPa Calm   1.6 km/h 78% 0 mm 0 W/m2
23:54 5 °C 1.5 °C 1012.8 hPa Calm   1.6 km/h 78% 0 mm 0 W/m2
23:59 5 °C 1.4 °C 1012.8 hPa Calm   1.6 km/h 77.4% 0 mm 0 W/m2
Hartford County Weather
Compliments of Weather Underground - 2 mb